Time,TemperatureF,DewpointF,PressureIn,WindDirection,WindDirectionDegrees,WindSpeedMPH,WindSpeedGustMPH,Humidity,HourlyPrecipIn,Conditions,Clouds,dailyrainin,SoftwareType,DateUTC
2013-06-17 00:12:00,63.4,61.0,29.83,NE,54,0.0,0.0,93,0.00,,,0.00,weatherlink.com 1.10,2013-06-17 04:12:00,
2013-06-17 00:27:00,63.2,61.0,29.83,NE,54,0.0,0.0,93,0.00,,,0.00,weatherlink.com 1.10,2013-06-17 04:27:00,
2013-06-17 00:42:00,62.7,61.0,29.82,NE,54,0.0,0.0,94,0.00,,,0.00,weatherlink.com 1.10,2013-06-17 04:42:00,
2013-06-17 00:57:00,62.5,61.0,29.82,NE,54,0.0,0.0,94,0.00,,,0.00,weatherlink.com 1.10,2013-06-17 04:57:00,
2013-06-17 01:12:00,62.2,61.0,29.82,NE,54,0.0,0.0,95,0.00,,,0.00,weatherlink.com 1.10,2013-06-17 05:12:00,
2013-06-17 01:27:00,61.8,60.0,29.81,NE,54,0.0,0.0,95,0.00,,,0.00,weatherlink.com 1.10,2013-06-17 05:27:00,
2013-06-17 01:42:00,61.3,60.0,29.81,NE,54,0.0,1.0,95,0.00,,,0.00,weatherlink.com 1.10,2013-06-17 05:42:00,
2013-06-17 01:57:00,60.9,60.0,29.81,NE,54,0.0,0.0,95,0.00,,,0.00,weatherlink.com 1.10,2013-06-17 05:57:00,
2013-06-17 02:12:00,61.1,60.0,29.80,NE,54,0.0,0.0,96,0.00,,,0.00,weatherlink.com 1.10,2013-06-17 06:12:00,
2013-06-17 02:27:00,61.1,60.0,29.81,NE,54,0.0,0.0,96,0.00,,,0.00,weatherlink.com 1.10,2013-06-17 06:27:00,
2013-06-17 02:42:00,61.2,60.0,29.81,NE,54,0.0,0.0,96,0.00,,,0.00,weatherlink.com 1.10,2013-06-17 06:42:00,
2013-06-17 02:57:00,61.2,60.0,29.82,NE,54,0.0,0.0,96,0.00,,,0.00,weatherlink.com 1.10,2013-06-17 06:57:00,
2013-06-17 03:12:00,61.3,60.0,29.81,NE,54,0.0,0.0,96,0.00,,,0.00,weatherlink.com 1.10,2013-06-17 07:12:00,
2013-06-17 03:27:00,61.1,60.0,29.82,NE,54,0.0,0.0,96,0.00,,,0.00,weatherlink.com 1.10,2013-06-17 07:27:00,
2013-06-17 03:42:00,60.9,60.0,29.83,NE,54,0.0,0.0,96,0.00,,,0.00,weatherlink.com 1.10,2013-06-17 07:42:00,
2013-06-17 03:58:00,60.5,59.0,29.83,NE,54,0.0,0.0,96,0.00,,,0.00,weatherlink.com 1.10,2013-06-17 07:58:00,
2013-06-17 04:13:00,60.2,59.0,29.83,NE,54,0.0,0.0,96,0.00,,,0.00,weatherlink.com 1.10,2013-06-17 08:13:00,
2013-06-17 04:28:00,59.8,59.0,29.83,NE,54,0.0,0.0,96,0.00,,,0.00,weatherlink.com 1.10,2013-06-17 08:28:00,
2013-06-17 04:43:00,59.3,58.0,29.83,NE,54,0.0,0.0,96,0.00,,,0.00,weatherlink.com 1.10,2013-06-17 08:43:00,
2013-06-17 04:58:00,58.9,58.0,29.83,NE,54,0.0,0.0,96,0.00,,,0.00,weatherlink.com 1.10,2013-06-17 08:58:00,
2013-06-17 05:13:00,58.8,58.0,29.84,NE,54,0.0,0.0,96,0.00,,,0.00,weatherlink.com 1.10,2013-06-17 09:13:00,
2013-06-17 05:28:00,58.3,57.0,29.84,NE,54,0.0,0.0,96,0.00,,,0.00,weatherlink.com 1.10,2013-06-17 09:28:00,
2013-06-17 05:43:00,58.0,57.0,29.84,NE,54,0.0,0.0,96,0.00,,,0.00,weatherlink.com 1.10,2013-06-17 09:43:00,
2013-06-17 05:58:00,57.8,57.0,29.84,NE,54,0.0,0.0,96,0.00,,,0.00,weatherlink.com 1.10,2013-06-17 09:58:00,
2013-06-17 06:13:00,57.9,57.0,29.84,NE,54,0.0,0.0,97,0.00,,,0.00,weatherlink.com 1.10,2013-06-17 10:13:00,
2013-06-17 06:28:00,58.3,58.0,29.84,NE,54,0.0,0.0,97,0.00,,,0.00,weatherlink.com 1.10,2013-06-17 10:28:00,
2013-06-17 06:43:00,58.5,58.0,29.84,NE,54,0.0,0.0,97,0.00,,,0.00,weatherlink.com 1.10,2013-06-17 10:43:00,
2013-06-17 06:58:00,59.0,58.0,29.85,NE,54,0.0,0.0,97,0.00,,,0.00,weatherlink.com 1.10,2013-06-17 10:58:00,
2013-06-17 07:13:00,60.4,60.0,29.85,East,82,0.0,0.0,98,0.00,,,0.00,weatherlink.com 1.10,2013-06-17 11:13:00,
2013-06-17 07:28:00,62.1,62.0,29.86,NW,313,0.0,4.0,98,0.00,,,0.00,weatherlink.com 1.10,2013-06-17 11:28:00,
2013-06-17 07:43:00,62.9,62.0,29.86,NW,315,0.0,4.0,98,0.00,,,0.00,weatherlink.com 1.10,2013-06-17 11:43:00,
2013-06-17 07:58:00,64.0,63.0,29.86,WNW,286,0.0,4.0,95,0.00,,,0.00,weatherlink.com 1.10,2013-06-17 11:58:00,
2013-06-17 08:13:00,66.1,62.0,29.87,NNW,335,1.0,7.0,87,0.00,,,0.00,weatherlink.com 1.10,2013-06-17 12:13:00,
2013-06-17 08:28:00,67.5,63.0,29.87,NW,326,0.0,7.0,84,0.00,,,0.00,weatherlink.com 1.10,2013-06-17 12:28:00,
2013-06-17 08:43:00,68.4,62.0,29.86,South,190,1.0,5.0,81,0.00,,,0.00,weatherlink.com 1.10,2013-06-17 12:43:00,
2013-06-17 08:58:00,69.2,61.0,29.86,NW,319,8.0,10.0,76,0.00,,,0.00,weatherlink.com 1.10,2013-06-17 12:58:00,
2013-06-17 09:13:00,69.6,61.0,29.85,NW,325,0.0,8.0,75,0.00,,,0.00,weatherlink.com 1.10,2013-06-17 13:13:00,
2013-06-17 09:28:00,70.0,61.0,29.86,NNW,342,6.0,10.0,74,0.00,,,0.00,weatherlink.com 1.10,2013-06-17 13:28:00,
2013-06-17 09:43:00,70.4,62.0,29.85,NNW,341,3.0,8.0,74,0.00,,,0.00,weatherlink.com 1.10,2013-06-17 13:43:00,
2013-06-17 09:58:00,71.6,63.0,29.85,NW,312,4.0,5.0,73,0.00,,,0.00,weatherlink.com 1.10,2013-06-17 13:58:00,
2013-06-17 10:13:00,72.5,62.0,29.84,NW,314,0.0,10.0,69,0.00,,,0.00,weatherlink.com 1.10,2013-06-17 14:13:00,
2013-06-17 10:28:00,73.2,62.0,29.85,NNW,346,1.0,8.0,69,0.00,,,0.00,weatherlink.com 1.10,2013-06-17 14:28:00,
2013-06-17 10:43:00,70.5,61.0,29.86,NW,319,0.0,9.0,71,0.00,,,0.00,weatherlink.com 1.10,2013-06-17 14:43:00,
2013-06-17 10:58:00,71.0,60.0,29.86,South,184,1.0,11.0,69,0.00,,,0.00,weatherlink.com 1.10,2013-06-17 14:58:00,
2013-06-17 11:13:00,72.0,60.0,29.87,NNW,332,5.0,10.0,67,0.00,,,0.00,weatherlink.com 1.10,2013-06-17 15:13:00,
2013-06-17 11:28:00,72.5,61.0,29.87,North,355,5.0,12.0,68,0.00,,,0.00,weatherlink.com 1.10,2013-06-17 15:28:00,
2013-06-17 11:44:00,72.3,61.0,29.88,SSE,158,5.0,12.0,68,0.00,,,0.00,weatherlink.com 1.10,2013-06-17 15:44:00,
2013-06-17 11:59:00,72.7,60.0,29.88,NW,310,4.0,12.0,65,0.00,,,0.00,weatherlink.com 1.10,2013-06-17 15:59:00,
2013-06-17 12:14:00,71.9,60.0,29.88,WNW,292,4.0,10.0,66,0.00,,,0.00,weatherlink.com 1.10,2013-06-17 16:14:00,
2013-06-17 12:29:00,71.4,60.0,29.88,NW,306,4.0,12.0,68,0.00,,,0.00,weatherlink.com 1.10,2013-06-17 16:29:00,
2013-06-17 12:44:00,72.0,61.0,29.89,ESE,110,5.0,11.0,68,0.00,,,0.00,weatherlink.com 1.10,2013-06-17 16:44:00,
2013-06-17 12:59:00,71.4,60.0,29.89,NW,320,1.0,15.0,67,0.00,,,0.00,weatherlink.com 1.10,2013-06-17 16:59:00,
2013-06-17 13:14:00,72.1,61.0,29.88,South,186,3.0,10.0,68,0.00,,,0.00,weatherlink.com 1.10,2013-06-17 17:14:00,
2013-06-17 13:29:00,73.9,60.0,29.88,NW,313,6.0,10.0,63,0.00,,,0.00,weatherlink.com 1.10,2013-06-17 17:29:00,
2013-06-17 13:44:00,74.4,60.0,29.88,NNE,28,3.0,9.0,62,0.00,,,0.00,weatherlink.com 1.10,2013-06-17 17:44:00,
2013-06-17 13:59:00,74.8,60.0,29.88,NNW,339,1.0,11.0,60,0.00,,,0.00,weatherlink.com 1.10,2013-06-17 17:59:00,
2013-06-17 14:14:00,75.8,62.0,29.87,West,269,3.0,12.0,62,0.00,,,0.00,weatherlink.com 1.10,2013-06-17 18:14:00,
2013-06-17 14:29:00,75.6,60.0,29.87,NW,305,1.0,13.0,59,0.00,,,0.00,weatherlink.com 1.10,2013-06-17 18:29:00,
2013-06-17 14:44:00,76.4,60.0,29.87,NW,309,7.0,12.0,58,0.00,,,0.00,weatherlink.com 1.10,2013-06-17 18:44:00,
2013-06-17 14:59:00,76.0,60.0,29.87,NNW,340,1.0,14.0,57,0.00,,,0.00,weatherlink.com 1.10,2013-06-17 18:59:00,
2013-06-17 15:14:00,76.1,59.0,29.87,NNW,347,5.0,12.0,55,0.00,,,0.00,weatherlink.com 1.10,2013-06-17 19:14:00,
2013-06-17 15:29:00,75.2,59.0,29.87,NNW,341,4.0,10.0,57,0.00,,,0.00,weatherlink.com 1.10,2013-06-17 19:29:00,
2013-06-17 15:44:00,76.2,59.0,29.87,NW,312,4.0,9.0,56,0.00,,,0.00,weatherlink.com 1.10,2013-06-17 19:44:00,
2013-06-17 15:59:00,76.9,59.0,29.87,North,5,3.0,10.0,55,0.00,,,0.00,weatherlink.com 1.10,2013-06-17 19:59:00,
2013-06-17 16:14:00,76.8,60.0,29.86,NNE,24,3.0,7.0,56,0.00,,,0.00,weatherlink.com 1.10,2013-06-17 20:14:00,
2013-06-17 16:29:00,77.2,59.0,29.86,South,187,10.0,10.0,54,0.00,,,0.00,weatherlink.com 1.10,2013-06-17 20:29:00,
2013-06-17 16:44:00,77.0,59.0,29.87,NW,317,0.0,9.0,54,0.00,,,0.00,weatherlink.com 1.10,2013-06-17 20:44:00,
2013-06-17 16:59:00,74.0,57.0,29.88,WNW,298,1.0,10.0,56,0.00,,,0.00,weatherlink.com 1.10,2013-06-17 20:59:00,
2013-06-17 17:14:00,72.1,61.0,29.88,WNW,302,3.0,5.0,67,0.01,,,0.01,weatherlink.com 1.10,2013-06-17 21:14:00,
2013-06-17 17:29:00,73.0,59.0,29.87,NW,315,0.0,7.0,62,0.01,,,0.01,weatherlink.com 1.10,2013-06-17 21:29:00,
2013-06-17 17:44:00,74.4,58.0,29.87,NNW,327,5.0,8.0,56,0.01,,,0.01,weatherlink.com 1.10,2013-06-17 21:44:00,
2013-06-17 17:59:00,74.8,57.0,29.86,NNW,335,4.0,8.0,55,0.01,,,0.01,weatherlink.com 1.10,2013-06-17 21:59:00,
2013-06-17 18:14:00,75.1,60.0,29.86,South,184,1.0,5.0,59,0.00,,,0.01,weatherlink.com 1.10,2013-06-17 22:14:00,
2013-06-17 18:29:00,75.5,58.0,29.86,NW,311,3.0,7.0,54,0.00,,,0.01,weatherlink.com 1.10,2013-06-17 22:29:00,
2013-06-17 18:44:00,75.8,58.0,29.86,WNW,298,3.0,5.0,54,0.00,,,0.01,weatherlink.com 1.10,2013-06-17 22:44:00,
2013-06-17 18:59:00,75.1,57.0,29.86,WNW,296,2.0,10.0,53,0.00,,,0.01,weatherlink.com 1.10,2013-06-17 22:59:00,
2013-06-17 19:14:00,74.9,57.0,29.87,WNW,294,0.0,7.0,54,0.00,,,0.01,weatherlink.com 1.10,2013-06-17 23:14:00,
2013-06-17 19:29:00,74.7,58.0,29.87,NNW,328,1.0,4.0,56,0.00,,,0.01,weatherlink.com 1.10,2013-06-17 23:29:00,
2013-06-17 19:44:00,73.8,57.0,29.87,NW,317,1.0,5.0,57,0.00,,,0.01,weatherlink.com 1.10,2013-06-17 23:44:00,
2013-06-17 19:59:00,73.0,57.0,29.86,NW,315,0.0,1.0,58,0.00,,,0.01,weatherlink.com 1.10,2013-06-17 23:59:00,
2013-06-17 20:14:00,71.6,57.0,29.87,NW,324,0.0,4.0,60,0.00,,,0.01,weatherlink.com 1.10,2013-06-18 00:14:00,
2013-06-17 20:29:00,70.2,56.0,29.87,WNW,302,0.0,6.0,60,0.00,,,0.01,weatherlink.com 1.10,2013-06-18 00:29:00,
2013-06-17 20:44:00,69.3,56.0,29.88,NW,309,0.0,2.0,62,0.00,,,0.01,weatherlink.com 1.10,2013-06-18 00:44:00,
2013-06-17 20:59:00,68.5,56.0,29.88,WNW,301,0.0,1.0,65,0.00,,,0.01,weatherlink.com 1.10,2013-06-18 00:59:00,
2013-06-17 21:14:00,67.1,56.0,29.88,WNW,301,0.0,0.0,68,0.00,,,0.01,weatherlink.com 1.10,2013-06-18 01:14:00,
2013-06-17 21:29:00,65.8,56.0,29.89,WNW,301,0.0,0.0,71,0.00,,,0.01,weatherlink.com 1.10,2013-06-18 01:29:00,
2013-06-17 21:44:00,64.6,56.0,29.90,WNW,301,0.0,0.0,73,0.00,,,0.01,weatherlink.com 1.10,2013-06-18 01:44:00,
2013-06-17 21:59:00,63.5,56.0,29.90,WNW,301,0.0,0.0,76,0.00,,,0.01,weatherlink.com 1.10,2013-06-18 01:59:00,
2013-06-17 22:14:00,62.4,56.0,29.90,WNW,301,0.0,0.0,79,0.00,,,0.01,weatherlink.com 1.10,2013-06-18 02:14:00,
2013-06-17 22:29:00,61.4,56.0,29.90,WNW,301,0.0,0.0,81,0.00,,,0.01,weatherlink.com 1.10,2013-06-18 02:29:00,
2013-06-17 22:44:00,60.7,56.0,29.89,WNW,301,0.0,0.0,83,0.00,,,0.01,weatherlink.com 1.10,2013-06-18 02:44:00,
2013-06-17 22:59:00,60.1,56.0,29.90,WNW,301,0.0,0.0,86,0.00,,,0.01,weatherlink.com 1.10,2013-06-18 02:59:00,
2013-06-17 23:14:00,59.7,56.0,29.89,WNW,301,0.0,0.0,87,0.00,,,0.01,weatherlink.com 1.10,2013-06-18 03:14:00,
2013-06-17 23:29:00,59.3,56.0,29.89,WNW,301,0.0,0.0,88,0.00,,,0.01,weatherlink.com 1.10,2013-06-18 03:29:00,
2013-06-17 23:44:00,58.9,56.0,29.91,WNW,301,0.0,0.0,90,0.00,,,0.01,weatherlink.com 1.10,2013-06-18 03:44:00,
2013-06-17 23:59:00,58.6,56.0,29.90,WNW,301,0.0,0.0,91,0.00,,,0.01,weatherlink.com 1.10,2013-06-18 03:59:00,